Time;durP1;ratioP1;P1;durP2;ratioP2;P2;SDS_P1;SDS_P2;PMS_P1;PMS_P2;Temp;Humidity;BMP_temperature;BMP_pressure;BME280_temperature;BME280_humidity;BME280_pressure;Samples;Min_cycle;Max_cycle;Signal;HPM_P1;HPM_P2
2023/06/07 00:00:09;;;;;;;4.13;3.00;;;;;;;-145.69;100.00;52137.44;5073836;28;20253;-77
2023/06/07 00:02:36;;;;;;;4.90;3.00;;;;;;;-145.69;100.00;52076.03;5073466;28;20206;-76
2023/06/07 00:05:03;;;;;;;3.57;2.60;;;;;;;-145.69;100.00;52080.00;5073339;28;20672;-77
2023/06/07 00:07:32;;;;;;;3.93;2.47;;;;;;;-145.69;100.00;52111.69;5073617;28;20202;-80
2023/06/07 00:09:59;;;;;;;3.53;2.60;;;;;;;-145.69;100.00;52115.66;5073359;28;20207;-80
2023/06/07 00:12:25;;;;;;;6.50;2.77;;;;;;;-145.69;100.00;52109.72;5073493;28;20191;-80
2023/06/07 00:14:52;;;;;;;4.90;2.90;;;;;;;-145.69;100.00;52070.09;5073174;28;20627;-79
2023/06/07 00:17:18;;;;;;;4.83;2.53;;;;;;;-145.69;100.00;52127.53;5065038;28;20202;-77
2023/06/07 00:19:45;;;;;;;5.27;2.70;;;;;;;-145.69;100.00;52101.78;5054072;28;20233;-77
2023/06/07 00:22:12;;;;;;;5.87;2.87;;;;;;;-145.69;100.00;52101.78;5073518;28;20707;-80
2023/06/07 00:24:40;;;;;;;7.53;3.20;;;;;;;-145.69;100.00;52093.88;5073493;28;20199;-79
2023/06/07 00:27:07;;;;;;;4.90;2.87;;;;;;;-145.69;100.00;52103.78;5073513;28;20594;-80
2023/06/07 00:29:33;;;;;;;4.90;2.97;;;;;;;-145.69;100.00;52109.72;5073220;28;20194;-80
2023/06/07 00:32:02;;;;;;;4.47;2.90;;;;;;;-145.69;100.00;52107.72;5072934;28;20195;-80
2023/06/07 00:34:28;;;;;;;6.13;2.70;;;;;;;-145.69;100.00;52095.84;5072969;28;20550;-80
2023/06/07 00:36:55;;;;;;;4.50;2.77;;;;;;;-145.69;100.00;52125.56;5073264;28;20203;-77
2023/06/07 00:39:22;;;;;;;5.13;3.00;;;;;;;-145.69;100.00;52107.72;5073066;28;20268;-77
2023/06/07 00:41:50;;;;;;;6.23;3.00;;;;;;;-145.69;100.00;52103.78;5073237;28;20658;-77
2023/06/07 00:44:17;;;;;;;4.73;2.77;;;;;;;-145.69;100.00;52127.53;5072791;28;20260;-80
2023/06/07 00:46:44;;;;;;;4.77;2.70;;;;;;;-145.69;100.00;52089.91;5073114;28;20226;-77
2023/06/07 00:49:15;;;;;;;4.33;2.60;;;;;;;-145.69;100.00;52137.44;5072493;28;20207;-80
2023/06/07 00:51:42;;;;;;;5.17;2.50;;;;;;;-145.69;100.00;52107.72;5053092;28;20199;-80
2023/06/07 00:54:09;;;;;;;5.60;2.60;;;;;;;-145.69;100.00;52107.72;5053135;28;20223;-80
2023/06/07 00:56:36;;;;;;;4.80;2.60;;;;;;;-145.69;100.00;52127.53;5053166;28;20199;-77
2023/06/07 00:59:04;;;;;;;3.87;2.83;;;;;;;-145.69;100.00;52165.16;5059946;28;20198;-77
2023/06/07 01:01:33;;;;;;;3.60;2.53;;;;;;;-145.69;100.00;52123.56;5072864;28;20209;-77
2023/06/07 01:04:00;;;;;;;5.23;2.63;;;;;;;-145.69;100.00;52121.59;5072966;28;20264;-77
2023/06/07 01:06:26;;;;;;;4.53;2.90;;;;;;;-145.69;100.00;52076.03;5073082;28;20225;-77
2023/06/07 01:08:53;;;;;;;4.77;2.97;;;;;;;-145.69;100.00;52091.88;5072231;28;20244;-77
2023/06/07 01:11:22;;;;;;;4.30;2.63;;;;;;;-145.69;100.00;52109.72;5072095;28;20191;-77
2023/06/07 01:13:50;;;;;;;4.87;2.57;;;;;;;-145.69;100.00;52135.47;5072775;28;20313;-79
2023/06/07 01:16:18;;;;;;;6.40;3.00;;;;;;;-145.69;100.00;52117.63;5072696;28;20229;-80
2023/06/07 01:18:45;;;;;;;3.60;2.93;;;;;;;-145.69;100.00;52131.50;5072247;28;20649;-80
2023/06/07 01:21:15;;;;;;;5.73;3.10;;;;;;;-145.69;100.00;52119.63;5072778;28;20699;-79
2023/06/07 01:23:42;;;;;;;5.10;2.97;;;;;;;-145.69;100.00;52091.88;5072718;28;20293;-77
2023/06/07 01:26:09;;;;;;;3.67;2.90;;;;;;;-145.69;100.00;52117.63;5072532;28;20205;-79
2023/06/07 01:28:37;;;;;;;4.88;3.35;;;;;;;-145.69;100.00;52119.63;5072022;28;20495;-79
2023/06/07 01:31:04;;;;;;;3.80;3.03;;;;;;;-145.69;100.00;52109.72;5076035;28;20241;-80
2023/06/07 01:33:33;;;;;;;3.80;2.57;;;;;;;-145.69;100.00;52131.50;5076671;28;20217;-78
2023/06/07 01:36:01;;;;;;;5.17;2.83;;;;;;;-145.69;100.00;52143.38;5075529;28;20221;-79
2023/06/07 01:38:28;;;;;;;7.40;3.20;;;;;;;-145.69;100.00;52119.63;5076494;28;20203;-80
2023/06/07 01:40:57;;;;;;;5.43;3.50;;;;;;;-145.69;100.00;52101.78;5076588;28;20198;-80
2023/06/07 01:43:24;;;;;;;4.90;3.27;;;;;;;-145.69;100.00;52099.81;5076558;28;20195;-77
2023/06/07 01:45:52;;;;;;;7.07;2.93;;;;;;;-145.69;100.00;52141.41;5076519;28;20207;-79
2023/06/07 01:48:19;;;;;;;4.33;3.10;;;;;;;-145.69;100.00;52125.56;5076319;28;20586;-79
2023/06/07 01:50:45;;;;;;;4.57;3.13;;;;;;;-145.69;100.00;52099.81;5074990;28;20198;-79
2023/06/07 01:53:12;;;;;;;5.17;3.07;;;;;;;-145.69;100.00;52105.75;5076340;28;20206;-77
2023/06/07 01:55:39;;;;;;;3.93;3.10;;;;;;;-145.69;100.00;52097.84;5075863;28;20226;-77
2023/06/07 01:58:20;;;;;;;4.50;3.03;;;;;;;-145.69;100.00;52113.66;5076242;28;20202;-79
2023/06/07 02:00:56;;;;;;;6.10;2.93;;;;;;;-145.69;100.00;52127.53;5076595;28;20613;-77
2023/06/07 02:03:30;;;;;;;3.07;2.40;;;;;;;-145.69;100.00;52161.19;5075859;28;20194;-78
2023/06/07 02:06:01;;;;;;;6.40;2.83;;;;;;;-145.69;100.00;52147.34;5076177;28;20214;-78
2023/06/07 02:08:30;;;;;;;9.73;3.10;;;;;;;-145.69;100.00;52139.41;5075859;28;20191;-78
2023/06/07 02:10:58;;;;;;;5.23;2.93;;;;;;;-145.69;100.00;52119.63;5075295;28;20634;-79
2023/06/07 02:13:27;;;;;;;3.70;2.77;;;;;;;-145.69;100.00;52117.63;5076192;28;20198;-79
2023/06/07 02:15:54;;;;;;;4.80;3.13;;;;;;;-145.69;100.00;52111.69;5075864;28;20231;-79
2023/06/07 02:18:20;;;;;;;4.90;3.17;;;;;;;-145.69;100.00;52135.47;5073472;28;20203;-79
2023/06/07 02:20:47;;;;;;;5.00;3.20;;;;;;;-145.69;100.00;52131.50;5075691;28;20649;-79
2023/06/07 02:23:15;;;;;;;4.43;2.70;;;;;;;-145.69;100.00;52087.94;5075668;28;20645;-78
2023/06/07 02:25:41;;;;;;;11.60;3.60;;;;;;;-145.69;100.00;52097.84;5075856;28;20194;-79
2023/06/07 02:28:08;;;;;;;6.90;3.00;;;;;;;-145.69;100.00;52143.38;5075878;28;20195;-79
2023/06/07 02:30:36;;;;;;;3.73;2.87;;;;;;;-145.69;100.00;52121.59;5075526;28;20202;-79
2023/06/07 02:33:02;;;;;;;5.53;3.13;;;;;;;-145.69;100.00;52119.63;5075534;28;20259;-79
2023/06/07 02:35:29;;;;;;;13.27;3.47;;;;;;;-145.69;100.00;52161.19;5075321;28;20233;-79
2023/06/07 02:37:55;;;;;;;3.33;2.50;;;;;;;-145.69;100.00;52131.50;5075405;28;20282;-78
2023/06/07 02:40:22;;;;;;;5.53;3.70;;;;;;;-145.69;100.00;52131.50;5075707;28;20301;-79
2023/06/07 02:42:49;;;;;;;3.77;2.73;;;;;;;-145.69;100.00;52135.47;5075472;28;20662;-79
2023/06/07 02:45:15;;;;;;;5.53;3.27;;;;;;;-145.69;100.00;52147.34;5075521;28;20260;-79
2023/06/07 02:47:44;;;;;;;6.30;3.67;;;;;;;-145.69;100.00;52151.28;5074906;28;20222;-79
2023/06/07 02:50:11;;;;;;;4.00;3.40;;;;;;;-145.69;100.00;52115.66;5075219;28;20205;-79
2023/06/07 02:52:37;;;;;;;5.03;3.00;;;;;;;-145.69;100.00;52123.56;5075631;28;20209;-78
2023/06/07 02:55:05;;;;;;;3.73;2.90;;;;;;;-145.69;100.00;52129.50;5075278;28;20230;-79
2023/06/07 02:57:31;;;;;;;5.83;3.13;;;;;;;-145.69;100.00;52133.47;5074981;28;20596;-79
2023/06/07 02:59:58;;;;;;;6.17;3.10;;;;;;;-145.69;100.00;52163.19;5075076;28;20203;-79
2023/06/07 03:02:25;;;;;;;4.20;3.20;;;;;;;-145.69;100.00;52163.19;5074541;28;20256;-79
2023/06/07 03:04:53;;;;;;;4.57;3.33;;;;;;;-145.69;100.00;52149.31;5074371;28;20638;-79
2023/06/07 03:07:20;;;;;;;6.07;3.70;;;;;;;-145.69;100.00;52127.53;5074943;28;20728;-79
2023/06/07 03:09:47;;;;;;;8.20;3.40;;;;;;;-145.69;100.00;52147.34;5075213;28;20194;-79
2023/06/07 03:12:14;;;;;;;8.50;4.00;;;;;;;-145.69;100.00;52149.31;5075055;28;20203;-79
2023/06/07 03:14:41;;;;;;;6.93;3.93;;;;;;;-145.69;100.00;52127.53;5074484;28;20222;-79
2023/06/07 03:17:08;;;;;;;5.43;3.17;;;;;;;-145.69;100.00;52151.28;5074556;28;20210;-79
2023/06/07 03:19:35;;;;;;;7.67;3.77;;;;;;;-145.69;100.00;52153.28;5074977;28;20293;-79
2023/06/07 03:22:06;;;;;;;5.83;3.60;;;;;;;-145.69;100.00;52151.28;5075012;28;20252;-79
2023/06/07 03:24:33;;;;;;;6.33;3.80;;;;;;;-145.69;100.00;52149.31;5074405;28;20198;-79
2023/06/07 03:27:00;;;;;;;6.00;3.87;;;;;;;-145.69;100.00;52171.09;5074181;28;20650;-79
2023/06/07 03:29:27;;;;;;;4.97;3.50;;;;;;;-145.69;100.00;52204.75;5074520;28;20198;-79
2023/06/07 03:31:53;;;;;;;9.37;3.60;;;;;;;-145.69;100.00;52155.25;5074501;28;20616;-79
2023/06/07 03:34:20;;;;;;;5.63;4.07;;;;;;;-145.69;100.00;52159.22;5073754;28;20203;-79
2023/06/07 03:36:47;;;;;;;8.53;4.13;;;;;;;-145.69;100.00;52123.56;5074623;28;20195;-78
2023/06/07 03:39:15;;;;;;;5.37;3.70;;;;;;;-145.69;100.00;52139.41;5074092;28;20613;-79
2023/06/07 03:41:42;;;;;;;6.37;3.40;;;;;;;-145.69;100.00;52194.88;5074004;28;20199;-79
2023/06/07 03:44:08;;;;;;;4.50;3.30;;;;;;;-145.69;100.00;52127.53;5074087;28;20199;-79
2023/06/07 03:46:35;;;;;;;5.10;3.30;;;;;;;-145.69;100.00;52182.97;5074083;28;20680;-79
2023/06/07 03:49:01;;;;;;;6.47;3.60;;;;;;;-145.69;100.00;52143.38;5074450;28;20199;-79
2023/06/07 03:51:27;;;;;;;5.57;3.50;;;;;;;-145.69;100.00;52143.38;5073957;28;20203;-79
2023/06/07 03:53:54;;;;;;;5.10;3.67;;;;;;;-145.69;100.00;52137.44;5073721;28;20199;-78
2023/06/07 03:56:22;;;;;;;5.40;4.00;;;;;;;-145.69;100.00;52177.03;5073679;28;20313;-79
2023/06/07 03:58:48;;;;;;;5.00;3.57;;;;;;;-145.69;100.00;52153.28;5073771;28;20202;-78
2023/06/07 04:01:16;;;;;;;6.53;3.80;;;;;;;-145.69;100.00;52175.06;5074119;28;20239;-79
2023/06/07 04:03:43;;;;;;;7.33;3.77;;;;;;;-145.69;100.00;52155.25;5073639;28;20282;-79
2023/06/07 04:06:09;;;;;;;5.30;3.87;;;;;;;-145.69;100.00;52151.28;5073778;28;20711;-78
2023/06/07 04:08:37;;;;;;;7.03;3.90;;;;;;;-145.69;100.00;52171.09;5073688;28;20203;-79
2023/06/07 04:11:03;;;;;;;5.77;3.67;;;;;;;-145.69;100.00;52171.09;5073755;28;20653;-79
2023/06/07 04:13:31;;;;;;;6.33;3.77;;;;;;;-145.69;100.00;52143.38;5072818;28;20547;-79
2023/06/07 04:15:58;;;;;;;5.53;3.30;;;;;;;-145.69;100.00;52159.22;5073633;28;20226;-79
2023/06/07 04:18:24;;;;;;;8.13;3.70;;;;;;;-145.69;100.00;52147.34;5073622;28;20256;-79
2023/06/07 04:20:51;;;;;;;4.90;3.60;;;;;;;-145.69;100.00;52139.41;5072975;28;20324;-79
2023/06/07 04:23:17;;;;;;;6.70;3.80;;;;;;;-145.69;100.00;52165.16;5073032;28;20199;-78
2023/06/07 04:25:46;;;;;;;6.53;3.60;;;;;;;-145.69;100.00;52155.25;5072522;28;20233;-78
2023/06/07 04:28:12;;;;;;;5.07;3.60;;;;;;;-145.69;100.00;52143.38;5072869;28;20294;-79
2023/06/07 04:30:41;;;;;;;4.77;3.50;;;;;;;-145.69;100.00;52161.19;5073404;28;20206;-78
2023/06/07 04:33:09;;;;;;;7.97;3.87;;;;;;;-145.69;100.00;52125.56;5072904;28;20195;-78
2023/06/07 04:35:36;;;;;;;4.40;3.40;;;;;;;-145.69;100.00;52115.66;5073380;28;20226;-79
2023/06/07 04:38:02;;;;;;;5.90;3.80;;;;;;;-145.69;100.00;52155.25;5073218;28;20205;-79
2023/06/07 04:40:29;;;;;;;5.07;3.70;;;;;;;-145.69;100.00;52153.28;5072868;28;20198;-78
2023/06/07 04:43:04;;;;;;;3.93;3.23;;;;;;;-145.69;100.00;52153.28;5073527;28;20297;-79
2023/06/07 04:45:31;;;;;;;4.70;3.00;;;;;;;-145.69;100.00;52123.56;5073905;28;20202;-78
2023/06/07 04:48:00;;;;;;;7.33;3.20;;;;;;;-145.69;100.00;52186.94;5072855;28;20272;-78
2023/06/07 04:50:28;;;;;;;5.60;3.17;;;;;;;-145.69;100.00;52179.03;5073031;28;20306;-78
2023/06/07 04:53:00;;;;;;;5.67;3.27;;;;;;;-145.69;100.00;52147.34;5073030;28;20207;-78
2023/06/07 04:55:29;;;;;;;5.37;3.70;;;;;;;-145.69;100.00;52135.47;5072863;28;20233;-78
2023/06/07 04:57:55;;;;;;;5.27;3.37;;;;;;;-145.69;100.00;52149.31;5072922;28;20286;-79
2023/06/07 05:00:22;;;;;;;4.60;3.33;;;;;;;-145.69;100.00;52179.03;5072485;28;20199;-78
2023/06/07 05:02:49;;;;;;;4.73;3.37;;;;;;;-145.69;100.00;52155.25;5073070;28;20610;-79
2023/06/07 05:05:17;;;;;;;4.70;2.90;;;;;;;-145.69;100.00;52121.59;5071970;28;20199;-79
2023/06/07 05:07:44;;;;;;;4.90;3.23;;;;;;;-145.69;100.00;52149.31;5072288;28;20666;-79
2023/06/07 05:10:11;;;;;;;12.33;3.67;;;;;;;-145.69;100.00;52099.81;5072607;28;20199;-79
2023/06/07 05:12:38;;;;;;;4.80;3.43;;;;;;;-145.69;100.00;52147.34;5072903;28;20226;-79
2023/06/07 05:15:06;;;;;;;6.93;3.27;;;;;;;-145.69;100.00;52151.28;5072745;28;20230;-79
2023/06/07 05:17:32;;;;;;;8.70;3.43;;;;;;;-145.69;100.00;52153.28;5072875;28;20293;-79
2023/06/07 05:19:59;;;;;;;5.50;3.23;;;;;;;-145.69;100.00;52141.41;5072121;28;20198;-78
2023/06/07 05:22:27;;;;;;;6.43;3.20;;;;;;;-145.69;100.00;52131.50;5072871;28;20256;-79
2023/06/07 05:24:54;;;;;;;8.90;3.40;;;;;;;-145.69;100.00;52151.28;5072877;28;20281;-79
2023/06/07 05:27:20;;;;;;;4.97;3.57;;;;;;;-145.69;100.00;52109.72;5072710;28;20608;-79
2023/06/07 05:29:46;;;;;;;4.70;3.33;;;;;;;-145.69;100.00;52117.63;5072272;28;20195;-79
2023/06/07 05:32:13;;;;;;;5.00;3.43;;;;;;;-145.69;100.00;52149.31;5072669;28;20206;-79
2023/06/07 05:34:39;;;;;;;7.17;3.73;;;;;;;-145.69;100.00;52175.06;5071915;28;20190;-79
2023/06/07 05:37:06;;;;;;;9.00;3.37;;;;;;;-145.69;100.00;52135.47;5072233;28;20226;-79
2023/06/07 05:39:34;;;;;;;6.40;3.40;;;;;;;-145.69;100.00;52113.66;5072776;28;20195;-79
2023/06/07 05:42:01;;;;;;;6.00;3.10;;;;;;;-145.69;100.00;52155.25;5072722;28;20262;-79
2023/06/07 05:44:27;;;;;;;5.32;2.75;;;;;;;-145.69;100.00;52133.47;5072764;28;20260;-79
2023/06/07 05:46:54;;;;;;;3.08;2.30;;;;;;;-145.69;100.00;52107.72;5072317;28;20720;-79
2023/06/07 05:49:20;;;;;;;7.00;2.63;;;;;;;-145.69;100.00;52137.44;5072526;28;20206;-77
2023/06/07 05:51:47;;;;;;;3.40;2.13;;;;;;;-145.69;100.00;52109.72;5072301;28;20203;-77
2023/06/07 05:54:13;;;;;;;6.80;2.42;;;;;;;-145.69;100.00;52137.44;5072420;28;20667;-77
2023/06/07 05:56:41;;;;;;;2.63;2.00;;;;;;;-145.69;100.00;52113.66;5072348;28;20223;-77
2023/06/07 05:59:07;;;;;;;2.88;1.90;;;;;;;-145.69;100.00;52131.50;5072258;28;20191;-77
2023/06/07 06:01:34;;;;;;;7.88;2.40;;;;;;;-145.69;100.00;52107.72;5072388;28;20276;-77
2023/06/07 06:04:01;;;;;;;4.82;2.00;;;;;;;-145.69;100.00;52099.81;5071883;28;20195;-77
2023/06/07 06:06:28;;;;;;;3.72;1.98;;;;;;;-145.69;100.00;52076.03;5072260;28;20260;-78
2023/06/07 06:08:54;;;;;;;4.88;2.00;;;;;;;-145.69;100.00;52087.94;5069221;28;20202;-78
2023/06/07 06:11:20;;;;;;;5.38;1.92;;;;;;;-145.69;100.00;52083.97;5072289;28;20194;-78
2023/06/07 06:13:50;;;;;;;3.13;1.85;;;;;;;-145.69;100.00;52068.13;5071900;28;20607;-77
2023/06/07 06:16:16;;;;;;;3.42;2.03;;;;;;;-145.69;100.00;52066.16;5072981;28;20230;-78
2023/06/07 06:18:43;;;;;;;3.60;1.77;;;;;;;-145.69;100.00;52072.09;5075012;28;20199;-77
2023/06/07 06:21:09;;;;;;;4.88;2.20;;;;;;;-145.69;100.00;52083.97;5075512;28;20194;-78
2023/06/07 06:23:36;;;;;;;2.90;2.15;;;;;;;-145.69;100.00;52085.94;5075357;28;20191;-78
2023/06/07 06:26:02;;;;;;;2.53;1.80;;;;;;;-145.69;100.00;52083.97;5075465;28;20206;-78
2023/06/07 06:28:29;;;;;;;2.75;1.80;;;;;;;-145.69;100.00;52040.41;5075375;28;20260;-78
2023/06/07 06:30:57;;;;;;;4.85;1.70;;;;;;;-145.69;100.00;52068.13;5075611;28;20195;-78
2023/06/07 06:33:23;;;;;;;3.85;1.85;;;;;;;-145.69;100.00;52050.31;5075072;28;20718;-77
2023/06/07 06:35:50;;;;;;;3.22;1.88;;;;;;;-145.69;100.00;52052.28;5075273;28;20222;-77
2023/06/07 06:38:17;;;;;;;2.22;1.90;;;;;;;-145.69;100.00;52064.16;5075410;28;20198;-77
2023/06/07 06:40:44;;;;;;;2.03;1.73;;;;;;;-145.69;100.00;52072.09;5075399;28;20556;-77
2023/06/07 06:43:11;;;;;;;3.10;1.95;;;;;;;-145.69;100.00;52083.97;5075644;28;20199;-78
2023/06/07 06:45:38;;;;;;;2.92;1.85;;;;;;;-145.69;100.00;52080.00;5075509;28;20260;-77
2023/06/07 06:48:06;;;;;;;5.03;1.70;;;;;;;-145.69;95.49;52076.03;5074535;28;20574;-78
2023/06/07 06:50:33;;;;;;;3.70;1.98;;;;;;;-145.69;96.07;52052.28;5074887;28;20191;-77
2023/06/07 06:53:00;;;;;;;4.05;1.90;;;;;;;-145.69;96.85;52036.44;5075380;28;20195;-77
2023/06/07 06:55:26;;;;;;;3.33;2.17;;;;;;;-145.69;100.00;52030.50;5074925;28;20202;-77
2023/06/07 06:57:52;;;;;;;3.30;1.70;;;;;;;-145.69;96.98;52042.38;5074784;28;20199;-77
2023/06/07 07:00:19;;;;;;;4.55;2.05;;;;;;;-145.69;95.32;52054.25;5075446;28;20217;-78
2023/06/07 07:02:46;;;;;;;5.32;2.30;;;;;;;-145.69;93.89;52068.13;5075081;28;20653;-77
2023/06/07 07:05:15;;;;;;;3.30;1.98;;;;;;;-145.69;99.25;52052.28;5075348;28;20203;-78
2023/06/07 07:07:41;;;;;;;2.85;1.77;;;;;;;-145.69;96.72;52032.47;5074641;28;20198;-77
2023/06/07 07:10:09;;;;;;;2.30;1.90;;;;;;;-145.69;93.03;52068.13;5074786;28;20260;-79
2023/06/07 07:12:36;;;;;;;4.57;2.30;;;;;;;-145.69;89.99;52064.16;5074815;28;20207;-77
2023/06/07 07:15:03;;;;;;;6.00;2.20;;;;;;;-145.69;90.96;52034.47;5075144;28;20210;-78
2023/06/07 07:17:30;;;;;;;5.25;1.98;;;;;;;-145.69;91.56;52034.47;5074712;28;20227;-77
2023/06/07 07:19:57;;;;;;;3.67;2.40;;;;;;;-145.69;89.65;52052.28;5073905;28;20434;-77
2023/06/07 07:22:24;;;;;;;5.05;2.22;;;;;;;-145.69;90.32;52046.34;5074863;28;20808;-77
2023/06/07 07:24:51;;;;;;;4.15;2.40;;;;;;;-145.69;87.85;52010.69;5074505;28;20220;-77
2023/06/07 07:27:21;;;;;;;4.22;2.90;;;;;;;-145.69;88.85;52028.53;5073591;28;20195;-77
2023/06/07 07:29:47;;;;;;;4.60;2.72;;;;;;;-145.69;89.50;52032.47;5074676;28;20684;-77
2023/06/07 07:32:14;;;;;;;6.13;2.80;;;;;;;-145.69;87.84;52038.44;5074481;28;20289;-77
2023/06/07 07:34:40;;;;;;;5.18;2.40;;;;;;;-145.69;85.33;52040.41;5074280;28;20558;-77
2023/06/07 07:37:07;;;;;;;5.85;2.80;;;;;;;-145.69;82.26;52032.47;5074509;28;20223;-77
2023/06/07 07:39:36;;;;;;;4.80;2.83;;;;;;;-145.69;84.49;52026.53;5074142;28;20194;-80
2023/06/07 07:42:03;;;;;;;5.35;2.67;;;;;;;-145.69;85.21;52008.72;5074447;28;20194;-79
2023/06/07 07:44:29;;;;;;;7.78;2.90;;;;;;;-145.69;85.61;52042.38;5074259;28;20653;-80
2023/06/07 07:46:56;;;;;;;9.20;3.33;;;;;;;-145.69;89.75;52032.47;5073742;28;20226;-79
2023/06/07 07:49:22;;;;;;;7.32;2.58;;;;;;;-145.69;87.63;52048.31;5074364;28;20199;-80
2023/06/07 07:51:49;;;;;;;4.18;2.53;;;;;;;-145.69;82.11;52038.44;5073986;28;20203;-81
2023/06/07 07:54:15;;;;;;;6.28;3.40;;;;;;;-145.69;79.98;52024.56;5074183;28;20213;-84
2023/06/07 07:56:43;;;;;;;5.07;2.67;;;;;;;-145.69;80.17;51981.00;5074065;28;20222;-82
2023/06/07 07:59:10;;;;;;;5.87;2.73;;;;;;;-145.69;77.05;52024.56;5073892;28;20529;-83
2023/06/07 08:01:37;;;;;;;8.38;2.88;;;;;;;-145.69;78.68;52032.47;5074200;28;20449;-84
2023/06/07 08:04:04;;;;;;;4.97;2.63;;;;;;;-145.69;77.84;52020.59;5073854;28;20297;-84
2023/06/07 08:06:30;;;;;;;6.57;2.45;;;;;;;-145.69;75.57;52012.69;5074089;28;20190;-86
2023/06/07 08:08:57;;;;;;;4.22;2.92;;;;;;;-145.69;70.87;52008.72;5074285;28;20228;-86
2023/06/07 08:11:25;;;;;;;5.97;2.70;;;;;;;-145.69;74.19;52012.69;5073340;28;20588;-83
2023/06/07 08:13:52;;;;;;;7.78;3.10;;;;;;;-145.69;75.19;52020.59;5074358;28;20297;-82
2023/06/07 08:16:19;;;;;;;5.93;2.72;;;;;;;-145.69;75.92;52022.59;5073491;28;20684;-81
2023/06/07 08:18:49;;;;;;;4.32;2.58;;;;;;;-145.69;77.62;52016.66;5073911;28;20636;-80
2023/06/07 08:21:15;;;;;;;3.55;2.40;;;;;;;-145.69;74.33;52018.63;5073711;28;20675;-82
2023/06/07 08:23:43;;;;;;;4.60;2.40;;;;;;;-145.69;69.54;51969.13;5074129;28;20256;-84
2023/06/07 08:26:10;;;;;;;4.70;2.45;;;;;;;-145.69;67.53;51994.88;5062525;28;20207;-80
2023/06/07 08:28:36;;;;;;;5.50;2.40;;;;;;;-145.69;68.42;51977.03;5053559;28;20234;-83
2023/06/07 08:31:04;;;;;;;7.25;2.40;;;;;;;-145.69;68.19;52006.75;5066182;28;20699;-85
2023/06/07 08:33:30;;;;;;;3.08;2.10;;;;;;;-145.69;65.35;52044.38;5074237;28;20272;-85
2023/06/07 08:35:57;;;;;;;5.57;2.35;;;;;;;-145.69;62.09;52012.69;5072849;28;20219;-86
2023/06/07 08:38:23;;;;;;;5.03;2.63;;;;;;;-145.69;65.69;51969.13;5072963;28;20191;-81
2023/06/07 08:40:53;;;;;;;7.53;2.47;;;;;;;-145.69;63.96;51984.97;5073722;28;20195;-86
2023/06/07 08:43:20;;;;;;;6.40;3.00;;;;;;;-145.69;60.16;51961.19;5074135;28;20202;-84
2023/06/07 08:45:46;;;;;;;4.28;2.08;;;;;;;-145.69;60.80;52008.72;5074039;28;20206;-86
2023/06/07 08:48:15;;;;;;;3.72;2.35;;;;;;;-145.69;64.01;51969.13;5073553;28;20230;-82
2023/06/07 08:50:42;;;;;;;9.02;2.78;;;;;;;-145.69;59.16;51973.06;5073409;28;20738;-79
2023/06/07 08:53:14;;;;;;;5.85;2.53;;;;;;;-145.69;58.71;51996.84;5073290;28;20199;-80
2023/06/07 08:55:41;;;;;;;7.00;2.70;;;;;;;-145.69;57.32;51977.03;5072946;28;20256;-79
2023/06/07 08:58:08;;;;;;;3.85;2.20;;;;;;;-145.69;57.46;51992.88;5072525;28;20234;-81
2023/06/07 09:00:36;;;;;;;3.85;2.53;;;;;;;-145.69;60.74;51981.00;5073660;28;20198;-84
2023/06/07 09:03:02;;;;;;;6.88;2.70;;;;;;;-145.69;57.97;51994.88;5073001;28;20206;-82
2023/06/07 09:05:30;;;;;;;5.95;2.47;;;;;;;-145.69;57.78;52002.78;5073212;28;20244;-84
2023/06/07 09:07:57;;;;;;;5.40;2.20;;;;;;;-145.69;58.38;51996.84;5072592;28;20198;-83
2023/06/07 09:10:24;;;;;;;4.80;2.20;;;;;;;-145.69;58.50;51982.97;5073352;28;20206;-84
2023/06/07 09:12:50;;;;;;;4.43;2.60;;;;;;;-145.69;54.98;52002.78;5073809;28;20290;-85
2023/06/07 09:15:19;;;;;;;4.88;2.20;;;;;;;-145.69;54.48;51973.06;5073447;28;20209;-83
2023/06/07 09:17:56;;;;;;;6.93;2.38;;;;;;;-145.69;51.46;51998.81;5074004;28;20232;-79
2023/06/07 09:20:24;;;;;;;6.43;2.47;;;;;;;-145.69;53.83;51984.97;5072974;28;20268;-79
2023/06/07 09:23:04;;;;;;;4.72;2.40;;;;;;;-145.69;51.40;51990.91;5073260;28;20672;-81
2023/06/07 09:25:31;;;;;;;4.45;2.60;;;;;;;-145.69;52.36;51992.88;5073349;28;20294;-82
2023/06/07 09:27:58;;;;;;;7.75;2.35;;;;;;;-145.69;52.92;51990.91;5072165;28;20234;-83
2023/06/07 09:30:25;;;;;;;4.65;2.63;;;;;;;-145.69;50.62;51947.34;5072549;28;20673;-81
2023/06/07 09:32:51;;;;;;;7.90;2.97;;;;;;;-145.69;53.02;51945.34;5072385;28;20634;-80
2023/06/07 09:35:19;;;;;;;4.93;2.15;;;;;;;-145.69;51.50;51975.06;5072751;28;20199;-84
2023/06/07 09:37:47;;;;;;;5.32;2.40;;;;;;;-145.69;48.86;51963.19;5073012;28;20283;-82
2023/06/07 09:40:16;;;;;;;9.07;2.58;;;;;;;-145.69;48.43;51998.81;5073837;28;20209;-80
2023/06/07 09:42:44;;;;;;;7.10;2.53;;;;;;;-145.69;51.70;51949.31;5060042;28;20207;-84
2023/06/07 09:45:12;;;;;;;7.10;2.50;;;;;;;-145.69;48.67;52000.81;5059748;28;20286;-86
2023/06/07 09:47:40;;;;;;;4.63;2.42;;;;;;;-145.69;49.46;51977.03;5072255;28;20562;-87
2023/06/07 09:50:07;;;;;;;5.50;2.60;;;;;;;-145.69;47.12;51967.13;5072979;28;20206;-83
2023/06/07 09:52:33;;;;;;;9.13;2.90;;;;;;;-145.69;51.66;51996.84;5077095;28;20191;-77
2023/06/07 09:55:01;;;;;;;3.90;2.60;;;;;;;-145.69;47.97;51971.09;5068248;28;20200;-84
2023/06/07 09:57:31;;;;;;;3.63;2.25;;;;;;;-145.69;46.67;51979.03;5056448;28;20716;-81
2023/06/07 10:00:00;;;;;;;2.95;2.20;;;;;;;-145.69;46.10;51988.91;5055866;28;20654;-80
2023/06/07 10:02:28;;;;;;;5.95;2.70;;;;;;;-145.69;47.99;51990.91;5057326;28;20654;-81
2023/06/07 10:04:56;;;;;;;4.50;2.35;;;;;;;-145.69;46.94;51988.91;5076533;28;20191;-81
2023/06/07 10:07:24;;;;;;;4.90;2.60;;;;;;;-145.69;46.75;51961.19;5076632;28;20214;-84
2023/06/07 10:09:54;;;;;;;5.30;2.45;;;;;;;-145.69;46.61;51957.25;5076254;28;20203;-86
2023/06/07 10:12:21;;;;;;;3.15;2.08;;;;;;;-145.69;44.19;51939.41;5076111;28;20244;-80
2023/06/07 10:14:52;;;;;;;4.22;2.67;;;;;;;-145.69;41.81;51992.88;5075707;28;20199;-81
2023/06/07 10:17:21;;;;;;;4.18;2.30;;;;;;;-145.69;43.17;51994.88;5074626;28;20577;-82
2023/06/07 10:19:52;;;;;;;3.78;2.40;;;;;;;-145.69;45.14;51943.38;5073205;28;20226;-81
2023/06/07 10:22:24;;;;;;;5.35;2.30;;;;;;;-145.69;44.11;51943.38;5075819;28;20273;-82
2023/06/07 10:24:57;;;;;;;6.20;2.85;;;;;;;-145.69;42.89;51984.97;5076091;28;20407;-82
2023/06/07 10:27:26;;;;;;;9.18;2.88;;;;;;;-145.69;43.38;51982.97;5075919;28;20248;-81
2023/06/07 10:30:03;;;;;;;4.03;2.35;;;;;;;-145.69;42.97;51937.44;5076230;28;20210;-82
2023/06/07 10:32:33;;;;;;;5.82;2.72;;;;;;;-145.69;42.05;51977.03;5075612;28;20611;-85
2023/06/07 10:35:01;;;;;;;5.10;2.50;;;;;;;-145.69;44.01;51949.31;5075719;28;20195;-80
2023/06/07 10:37:30;;;;;;;3.90;2.40;;;;;;;-145.69;42.75;51957.25;5075675;28;20227;-81
2023/06/07 10:39:57;;;;;;;5.63;3.10;;;;;;;-145.69;42.42;51953.28;5075463;28;20202;-80
2023/06/07 10:42:25;;;;;;;4.60;2.83;;;;;;;-145.69;42.00;51941.41;5076099;28;20205;-79
2023/06/07 10:44:54;;;;;;;6.43;2.60;;;;;;;-145.69;41.94;51959.22;5075744;28;20199;-81
2023/06/07 10:47:27;;;;;;;5.00;3.30;;;;;;;-145.69;41.44;51957.25;5075718;28;20235;-80
2023/06/07 10:49:54;;;;;;;9.82;2.80;;;;;;;-145.69;41.08;51917.63;5075946;28;20205;-79
2023/06/07 10:52:22;;;;;;;6.05;2.50;;;;;;;-145.69;40.24;51951.28;5075779;28;20565;-82
2023/06/07 10:54:48;;;;;;;10.63;2.65;;;;;;;-145.69;39.77;51961.19;5075024;28;20202;-80
2023/06/07 10:57:31;;;;;;;9.13;3.13;;;;;;;-145.69;42.15;51941.41;5075420;28;20237;-76
2023/06/07 11:00:26;;;;;;;23.05;5.07;;;;;;;-145.69;40.44;51937.44;5075430;28;20689;-78
2023/06/07 11:03:26;;;;;;;10.57;3.42;;;;;;;-145.69;39.66;51949.31;5073840;28;20199;-79
2023/06/07 11:06:08;;;;;;;8.45;3.00;;;;;;;-145.69;38.47;51931.50;5075012;28;20195;-82
2023/06/07 11:08:37;;;;;;;6.57;2.60;;;;;;;-145.69;39.30;51921.59;5075310;28;20252;-79
2023/06/07 11:11:05;;;;;;;3.67;2.42;;;;;;;-145.69;37.17;51931.50;5075016;28;20256;-82
2023/06/07 11:14:09;;;;;;;4.78;2.80;;;;;;;-145.69;36.46;51961.19;5063609;28;20673;-81